Flight Track Log - Related Links

Times and Time Zones

All times are in EDT time to prevent confusion due to time zone crossing. See the FDX53 flight status page for this flight to view local times or setup timezone preferences in your user account.

Time Position Orientation Groundspeed Altitude Reporting Facility
EDT Latitude Longitude Course Direction KTS MPH feet Rate Location/Type
Sun 05:54:24 PM 35.0500 -89.9833 321° Northwest 162 186 1,100  Level KMEM
Sun 05:55:34 PM 35.1000 -90.0333 321° Northwest 246 283 2,400 2,191 Climbing KMEM
Sun 05:57:22 PM 35.0803 -90.2100 262° West 282 325 7,600 2,929 Climbing Memphis Center
Sun 05:58:22 PM 35.0719 -90.3064 264° West 282 325 10,600 2,500 Climbing Memphis Center
Sun 05:59:22 PM 35.0469 -90.3850 249° West 282 325 12,600 1,950 Climbing Memphis Center
Sun 06:00:22 PM 35.0156 -90.4711 246° West 282 325 14,500 1,500 Climbing Memphis Center
Sun 06:01:22 PM 34.9781 -90.5725 246° West 311 358 15,600 1,150 Climbing Memphis Center
Sun 06:02:22 PM 34.9381 -90.6914 248° West 358 412 16,800 1,600 Climbing Memphis Center
Sun 06:03:22 PM 34.8939 -90.8128 246° West 390 449 18,800 2,000 Climbing Memphis Center
Sun 06:04:22 PM 34.8725 -90.9519 259° West 412 474 20,800 2,000 Climbing Memphis Center
Sun 06:05:22 PM 34.8486 -91.0961 259° West 434 499 22,800 2,050 Climbing Memphis Center
Sun 06:06:22 PM 34.8247 -91.2500 259° West 439 505 24,900 1,900 Climbing Memphis Center
Sun 06:07:22 PM 34.8006 -91.3992 259° West 439 505 26,600 1,600 Climbing Memphis Center
Sun 06:08:22 PM 34.7806 -91.5481 261° West 450 518 28,100 1,650 Climbing Memphis Center
Sun 06:09:22 PM 34.7478 -91.6967 255° West 457 526 29,900 1,900 Climbing Memphis Center
Sun 06:10:22 PM 34.6839 -91.8042 234° Southwest 442 509 31,900 1,050 Climbing Memphis Center
Sun 06:11:22 PM 34.5767 -91.8883 213° Southwest 442 509 32,000 50 Climbing Memphis Center
Sun 06:12:22 PM 34.4631 -91.9642 209° Southwest 451 519 32,000  Level Memphis Center
Sun 06:13:22 PM 34.3472 -92.0375 208° Southwest 465 535 32,000  Level Memphis Center
Sun 06:14:22 PM 34.2314 -92.1108 208° Southwest 470 541 32,000  Level Memphis Center
Sun 06:15:22 PM 34.1175 -92.1886 209° Southwest 475 547 32,000  Level Memphis Center
Sun 06:17:30 PM 33.8669 -92.3533 209° Southwest 463 533 32,000  Level Fort Worth Center
Sun 06:18:30 PM 33.7550 -92.4272 209° Southwest 468 539 32,000  Level Fort Worth Center
Sun 06:19:30 PM 33.6411 -92.5011 208° Southwest 463 533 32,000  Level Fort Worth Center
Sun 06:20:30 PM 33.5289 -92.5697 207° Southwest 463 533 32,000  Level Fort Worth Center
Sun 06:21:30 PM 33.4150 -92.6456 209° Southwest 463 533 32,000  Level Fort Worth Center
Sun 06:22:30 PM 33.2989 -92.7189 208° Southwest 463 533 32,000  Level Fort Worth Center
Sun 06:23:30 PM 33.1911 -92.7967 211° Southwest 463 533 32,000  Level Fort Worth Center
Sun 06:24:31 PM 33.0878 -92.8811 214° Southwest 457 526 32,000  Level Fort Worth Center
Sun 06:25:30 PM 32.9864 -92.9656 215° Southwest 452 520 32,000  Level Fort Worth Center
Sun 06:26:31 PM 32.8831 -93.0500 214° Southwest 452 520 32,000  Level Fort Worth Center
Sun 06:28:24 PM 32.6975 -93.2028 215° Southwest 448 516 32,000  Level Houston Center
Sun 06:29:26 PM 32.5942 -93.2864 214° Southwest 450 518 32,000  Level Houston Center
Sun 06:34:44 PM 32.0273 -93.7393 214° Southwest 452 520 32,000 17 Level FlightAware ADS-B
Sun 06:35:28 PM 31.9498 -93.8014 214° Southwest 452 520 32,100  Climbing FlightAware ADS-B
Sun 06:36:13 PM 31.8720 -93.8634 214° Southwest 450 518 32,000 -68 Descending FlightAware ADS-B
Sun 06:36:56 PM 31.7980 -93.9224 214° Southwest 450 518 32,000  Level FlightAware ADS-B
Sun 06:40:16 PM 31.4535 -94.1938 214° Southwest 449 517 32,000  Level FlightAware ADS-B
Sun 06:40:38 PM 31.4153 -94.2237 214° Southwest 449 517 32,000  Level FlightAware ADS-B
Sun 06:40:47 PM 31.4005 -94.2345 212° Southwest 450 518 32,000  Level FlightAware ADS-B
Sun 06:41:09 PM 31.3621 -94.2643 214° Southwest 450 518 32,000  Level FlightAware ADS-B
Sun 06:41:51 PM 31.2880 -94.3226 214° Southwest 450 518 32,000  Level FlightAware ADS-B
Sun 06:42:23 PM 31.2326 -94.3660 214° Southwest 451 519 32,000  Level FlightAware ADS-B
Sun 06:42:54 PM 31.1795 -94.4081 214° Southwest 451 519 32,000  Level FlightAware ADS-B
Sun 06:43:25 PM 31.1261 -94.4489 213° Southwest 453 521 32,000  Level FlightAware ADS-B
Sun 06:43:36 PM 31.1058 -94.4651 214° Southwest 453 521 32,000  Level FlightAware ADS-B
Sun 06:43:56 PM 31.0714 -94.4922 214° Southwest 453 521 32,000  Level FlightAware ADS-B
Sun 06:44:19 PM 31.0316 -94.5221 213° Southwest 453 521 32,000  Level FlightAware ADS-B
Sun 06:44:30 PM 31.0126 -94.5369 214° Southwest 452 520 32,000  Level FlightAware ADS-B
Sun 06:44:54 PM 30.9703 -94.5693 213° Southwest 452 520 32,000  Level FlightAware ADS-B
Sun 06:45:00 PM 30.9590 -94.5787 216° Southwest 451 519 32,000  Level FlightAware ADS-B
Sun 06:45:27 PM 30.9119 -94.6151 214° Southwest 450 518 32,000  Level FlightAware ADS-B
Sun 06:45:31 PM 30.9051 -94.6205 214° Southwest 450 518 32,000  Level FlightAware ADS-B
Sun 06:45:58 PM 30.8586 -94.6568 214° Southwest 450 518 32,000  Level FlightAware ADS-B
Sun 06:46:02 PM 30.8516 -94.6622 214° Southwest 450 518 32,000  Level FlightAware ADS-B
Sun 06:46:32 PM 30.8007 -94.7012 213° Southwest 450 518 32,000  Level FlightAware ADS-B
Sun 06:46:34 PM 30.7967 -94.7051 220° Southwest 450 518 32,000  Level FlightAware ADS-B
Sun 06:47:02 PM 30.7485 -94.7413 213° Southwest 449 517 32,000  Level FlightAware ADS-B
Sun 06:47:04 PM 30.7439 -94.7453 217° Southwest 449 517 32,000  Level FlightAware ADS-B
Sun 06:47:34 PM 30.6927 -94.7839 213° Southwest 449 517 32,000  Level FlightAware ADS-B
Sun 06:47:37 PM 30.6867 -94.7893 218° Southwest 449 517 32,000  Level FlightAware ADS-B
Sun 06:48:07 PM 30.6359 -94.8280 213° Southwest 449 517 32,000  Level FlightAware ADS-B
Sun 06:48:08 PM 30.6340 -94.8293 210° Southwest 449 517 32,000  Level FlightAware ADS-B
Sun 06:48:39 PM 30.5791 -94.8719 214° Southwest 448 516 32,000  Level FlightAware ADS-B
Sun 06:48:40 PM 30.5773 -94.8732 212° Southwest 448 516 32,000  Level FlightAware ADS-B
Sun 06:49:09 PM 30.5268 -94.9116 213° Southwest 448 516 32,000  Level FlightAware ADS-B
Sun 06:49:13 PM 30.5214 -94.9155 212° Southwest 448 516 32,000  Level FlightAware ADS-B
Sun 06:49:40 PM 30.4738 -94.9526 214° Southwest 447 514 32,000  Level FlightAware ADS-B
Sun 06:49:43 PM 30.4693 -94.9553 207° Southwest 447 514 32,000  Level FlightAware ADS-B
Sun 06:50:10 PM 30.4218 -94.9923 214° Southwest 447 514 32,000  Level FlightAware ADS-B
Sun 06:50:13 PM 30.4173 -94.9950 207° Southwest 447 514 32,000  Level FlightAware ADS-B
Sun 06:50:40 PM 30.3694 -95.0320 214° Southwest 447 514 32,000  Level FlightAware ADS-B
Sun 06:50:45 PM 30.3620 -95.0372 211° Southwest 446 513 32,000  Level FlightAware ADS-B
Sun 06:51:15 PM 30.3101 -95.0781 214° Southwest 447 514 32,000  Level FlightAware ADS-B
Sun 06:51:16 PM 30.3077 -95.0794 205° Southwest 447 514 32,000  Level FlightAware ADS-B
Sun 06:51:45 PM 30.2581 -95.1178 214° Southwest 447 514 32,000  Level FlightAware ADS-B
Sun 06:51:51 PM 30.2475 -95.1257 213° Southwest 448 516 32,000  Level FlightAware ADS-B
Sun 06:52:15 PM 30.2054 -95.1571 213° Southwest 448 516 32,000  Level FlightAware ADS-B
Sun 06:52:21 PM 30.1952 -95.1652 214° Southwest 449 517 32,000  Level FlightAware ADS-B
Sun 06:52:46 PM 30.1526 -95.1968 213° Southwest 449 517 32,000  Level FlightAware ADS-B
Sun 06:52:51 PM 30.1423 -95.2048 214° Southwest 449 517 32,000  Level FlightAware ADS-B
Sun 06:53:16 PM 30.1000 -95.2364 213° Southwest 450 518 32,000  Level FlightAware ADS-B
Sun 06:53:22 PM 30.0900 -95.2443 214° Southwest 450 518 32,000  Level FlightAware ADS-B
Sun 06:53:46 PM 30.0477 -95.2775 214° Southwest 451 519 32,000  Level FlightAware ADS-B
Sun 06:53:53 PM 30.0357 -95.2854 210° Southwest 451 519 32,000  Level FlightAware ADS-B
Sun 06:54:17 PM 29.9933 -95.3185 214° Southwest 452 520 32,000  Level FlightAware ADS-B
Sun 06:54:23 PM 29.9825 -95.3264 212° Southwest 452 520 32,000  Level FlightAware ADS-B
Sun 06:54:51 PM 29.9345 -95.3622 213° Southwest 452 520 32,000  Level FlightAware ADS-B
Sun 06:54:53 PM 29.9294 -95.3663 215° Southwest 452 520 32,000  Level FlightAware ADS-B
Sun 06:55:21 PM 29.8833 -95.4041 215° Southwest 450 518 32,000  Level FlightAware ADS-B
Sun 06:55:24 PM 29.8780 -95.4083 214° Southwest 451 519 32,000  Level FlightAware ADS-B
Sun 06:55:51 PM 29.8313 -95.4478 216° Southwest 452 520 32,000  Level FlightAware ADS-B
Sun 06:55:58 PM 29.8206 -95.4562 214° Southwest 452 520 32,000  Level FlightAware ADS-B
Sun 06:56:22 PM 29.7796 -95.4897 215° Southwest 452 520 32,000  Level FlightAware ADS-B
Sun 06:56:29 PM 29.7678 -95.4994 216° Southwest 452 520 32,000  Level FlightAware ADS-B
Sun 06:56:55 PM 29.7229 -95.5356 215° Southwest 453 521 32,000  Level FlightAware ADS-B
Sun 06:57:03 PM 29.7091 -95.5468 215° Southwest 453 521 32,000  Level FlightAware ADS-B
Sun 06:57:25 PM 29.6710 -95.5788 216° Southwest 453 521 32,000  Level FlightAware ADS-B
Sun 06:57:33 PM 29.6572 -95.5898 215° Southwest 453 521 32,000 200 Level FlightAware ADS-B
Sun 06:57:55 PM 29.6194 -95.6205 215° Southwest 452 520 32,100  Climbing FlightAware ADS-B
Sun 06:58:26 PM 29.5673 -95.6621 215° Southwest 451 519 32,000 -105 Descending FlightAware ADS-B
Sun 06:58:52 PM 29.5215 -95.6994 215° Southwest 452 520 32,000  Level FlightAware ADS-B
Sun 06:58:56 PM 29.5155 -95.7049 219° Southwest 451 519 32,000  Level FlightAware ADS-B
Sun 06:59:26 PM 29.4642 -95.7463 215° Southwest 450 518 32,000  Level FlightAware ADS-B
Sun 06:59:56 PM 29.4127 -95.7875 215° Southwest 449 517 32,000  Level FlightAware ADS-B
Sun 07:00:06 PM 29.3961 -95.8013 216° Southwest 450 518 32,000  Level FlightAware ADS-B
Sun 07:00:28 PM 29.3585 -95.8315 215° Southwest 449 517 32,000  Level FlightAware ADS-B
Sun 07:01:04 PM 29.2975 -95.8807 215° Southwest 448 516 32,000  Level FlightAware ADS-B
Sun 07:01:34 PM 29.2465 -95.9218 215° Southwest 448 516 32,000  Level FlightAware ADS-B
Sun 07:02:04 PM 29.1952 -95.9625 215° Southwest 446 513 32,000  Level FlightAware ADS-B
Sun 07:02:38 PM 29.1375 -96.0085 215° Southwest 446 513 32,000  Level FlightAware ADS-B
Sun 07:03:12 PM 29.0840 -96.0520 215° Southwest 443 510 32,000  Level FlightAware ADS-B
Sun 07:03:40 PM 29.0328 -96.0921 214° Southwest 444 511 32,000  Level FlightAware ADS-B
Sun 07:04:13 PM 28.9778 -96.1365 215° Southwest 444 511 32,000  Level FlightAware ADS-B
Sun 07:04:53 PM 28.9110 -96.1890 215° Southwest 444 511 32,000  Level FlightAware ADS-B
Sun 07:05:36 PM 28.8371 -96.2480 215° Southwest 445 512 32,000  Level FlightAware ADS-B
Sun 07:06:42 PM 28.7390 -96.3410 220° Southwest 428 493 32,000  Level FlightAware ADS-B
Sun 07:07:27 PM 28.6790 -96.4220 230° Southwest 430 495 32,000  Level FlightAware ADS-B
Sun 07:08:07 PM 28.6290 -96.4870 229° Southwest 430 495 32,000  Level FlightAware ADS-B
Sun 07:08:52 PM 28.5710 -96.5650 230° Southwest 430 495 32,000  Level FlightAware ADS-B
Sun 07:09:27 PM 28.5280 -96.6210 229° Southwest 429 494 32,000  Level FlightAware ADS-B
Sun 07:10:07 PM 28.4840 -96.6790 229° Southwest 429 494 32,000  Level FlightAware ADS-B
Sun 07:10:57 PM 28.4280 -96.7510 229° Southwest 429 494 32,000  Level FlightAware ADS-B
Sun 07:11:37 PM 28.3840 -96.8090 229° Southwest 429 494 32,000  Level FlightAware ADS-B
Sun 07:12:17 PM 28.3400 -96.8670 229° Southwest 429 494 32,000  Level FlightAware ADS-B
Sun 07:12:57 PM 28.2960 -96.9250 229° Southwest 429 494 32,000  Level FlightAware ADS-B
Sun 07:13:37 PM 28.2510 -96.9820 228° Southwest 429 494 32,000  Level FlightAware ADS-B
Sun 07:14:27 PM 28.1960 -97.0550 229° Southwest 429 494 32,000  Level FlightAware ADS-B
Sun 07:15:07 PM 28.1520 -97.1120 229° Southwest 429 494 32,000  Level FlightAware ADS-B
Sun 07:15:47 PM 28.1080 -97.1700 229° Southwest 429 494 32,000  Level FlightAware ADS-B
Sun 07:16:27 PM 28.0630 -97.2280 229° Southwest 429 494 32,000  Level FlightAware ADS-B
Sun 07:17:02 PM 27.7650 -97.1490 167° South 473 544 32,000  Level FlightAware ADS-B
Sun 07:17:42 PM 27.6770 -97.1660 190° South 474 545 32,000  Level FlightAware ADS-B
Sun 07:18:22 PM 27.5910 -97.1820 189° South 476 548 32,000  Level FlightAware ADS-B
Sun 07:19:07 PM 27.4900 -97.2010 189° South 480 552 32,000  Level FlightAware ADS-B
Sun 07:19:47 PM 27.4010 -97.2180 190° South 483 556 32,000 75 Level FlightAware ADS-B
Sun 07:20:27 PM 27.3120 -97.2350 190° South 484 557 32,100 71 Climbing FlightAware ADS-B
Sun 07:21:12 PM 27.2150 -97.2540 190° South 484 557 32,100 -71 Level FlightAware ADS-B
Sun 07:21:52 PM 27.1270 -97.2700 189° South 483 556 32,000 -75 Descending FlightAware ADS-B
Sun 07:22:32 PM 27.0390 -97.2870 190° South 481 554 32,000  Level FlightAware ADS-B
Sun 07:23:17 PM 26.9370 -97.3060 189° South 481 554 32,000  Level FlightAware ADS-B
Sun 07:24:02 PM 26.8390 -97.3250 190° South 480 552 32,000  Level FlightAware ADS-B
Sun 07:24:42 PM 26.7510 -97.3410 189° South 479 551 32,000  Level FlightAware ADS-B
Sun 07:25:22 PM 26.6640 -97.3570 189° South 477 549 32,000  Level FlightAware ADS-B
Sun 07:26:04 PM 26.5680 -97.3755 190° South 476 548 32,000  Level FlightAware ADS-B
Sun 07:26:35 PM 26.4991 -97.3883 189° South 476 548 32,000  Level FlightAware ADS-B
Sun 07:27:27 PM 26.3920 -97.4090 190° South 474 545 32,000  Level FlightAware ADS-B
Sun 07:28:12 PM 26.2920 -97.4270 189° South 475 547 32,000  Level FlightAware ADS-B
Sun 07:28:52 PM 26.2050 -97.4430 189° South 477 549 32,000 71 Level FlightAware ADS-B
Sun 07:29:37 PM 26.1090 -97.4610 190° South 477 549 32,100 67 Climbing FlightAware ADS-B
Sun 07:30:22 PM 26.0080 -97.4800 190° South 476 548 32,100 -75 Level FlightAware ADS-B
Sun 07:30:57 PM 25.9360 -97.4930 189° South 475 547 32,000 -80 Descending FlightAware ADS-B
Sun 07:31:37 PM 25.8460 -97.5100 190° South 473 544 32,000  Level FlightAware ADS-B
Sun 07:32:22 PM 25.7540 -97.5400 196° South 451 519 32,000  Level FlightAware ADS-B
Sun 07:33:07 PM 25.6750 -97.5920 211° Southwest 444 511 32,000  Level FlightAware ADS-B
Sun 07:33:47 PM 25.6050 -97.6430 213° Southwest 447 514 32,000  Level FlightAware ADS-B
Sun 07:34:32 PM 25.5280 -97.6970 212° Southwest 451 519 32,000  Level FlightAware ADS-B
Sun 07:35:12 PM 25.4560 -97.7490 213° Southwest 451 519 32,000 75 Level FlightAware ADS-B
Sun 07:35:52 PM 25.3840 -97.7990 212° Southwest 453 521 32,100  Climbing FlightAware ADS-B
Sun 07:36:37 PM 25.3070 -97.8550 213° Southwest 451 519 32,000 -71 Descending FlightAware ADS-B
Sun 07:37:17 PM 25.2360 -97.9050 213° Southwest 451 519 32,000  Level FlightAware ADS-B
Sun 07:38:02 PM 25.1580 -97.9610 213° Southwest 450 518 32,000  Level FlightAware ADS-B
Sun 07:38:42 PM 25.0840 -98.0130 212° Southwest 450 518 32,000  Level FlightAware ADS-B
Sun 07:39:22 PM 25.0130 -98.0630 213° Southwest 451 519 32,000  Level FlightAware ADS-B
Sun 07:40:07 PM 24.9380 -98.1160 213° Southwest 454 522 32,000  Level FlightAware ADS-B
Sun 07:40:42 PM 24.8730 -98.1610 212° Southwest 454 522 32,000  Level FlightAware ADS-B
Sun 07:41:32 PM 24.7830 -98.2240 212° Southwest 456 525 32,000 67 Level FlightAware ADS-B
Sun 07:42:12 PM 24.7130 -98.2710 211° Southwest 456 525 32,100  Climbing FlightAware ADS-B
Sun 07:42:52 PM 24.6400 -98.3210 212° Southwest 455 524 32,000 -63 Descending FlightAware ADS-B
Sun 07:43:47 PM 24.5470 -98.3860 212° Southwest 455 524 32,000  Level FlightAware ADS-B
Sun 07:44:27 PM 24.4870 -98.4270 212° Southwest 455 524 32,000  Level FlightAware ADS-B
Sun 07:45:07 PM 24.4260 -98.4690 212° Southwest 455 524 32,000  Level FlightAware ADS-B
Sun 07:45:57 PM 24.3500 -98.5210 212° Southwest 455 524 32,000  Level FlightAware ADS-B
Sun 07:46:37 PM 24.2890 -98.5630 212° Southwest 455 524 32,000  Level FlightAware ADS-B
Sun 07:47:17 PM 24.2290 -98.6040 212° Southwest 455 524 32,000  Level FlightAware ADS-B
Sun 07:47:57 PM 24.1680 -98.6460 212° Southwest 455 524 32,000  Level FlightAware ADS-B
Sun 07:48:37 PM 24.1070 -98.6870 212° Southwest 455 524 32,000  Level FlightAware ADS-B
Sun 07:49:27 PM 24.0310 -98.7390 212° Southwest 455 524 32,000  Level FlightAware ADS-B
Sun 07:50:07 PM 23.9710 -98.7810 213° Southwest 455 524 32,000  Level FlightAware ADS-B
Sun 07:50:47 PM 23.9100 -98.8220 212° Southwest 455 524 32,000  Level FlightAware ADS-B
Sun 07:51:27 PM 23.8490 -98.8640 212° Southwest 455 524 32,000  Level FlightAware ADS-B
Sun 07:52:07 PM 23.7880 -98.9050 212° Southwest 455 524 32,000  Level FlightAware ADS-B
Sun 07:52:57 PM 23.7130 -98.9570 212° Southwest 455 524 32,000 -193 Level FlightAware ADS-B
Sun 07:55:00 PM 23.4724 -98.9915 187° South  Level Estimated
Sun 07:56:00 PM 23.3550 -99.0083 187° South  Level Estimated
Sun 07:57:00 PM 23.2376 -99.0250 187° South  Level Estimated
Sun 07:58:00 PM 23.1202 -99.0417 187° South  Level Estimated
Sun 07:59:00 PM 23.0028 -99.0584 187° South  Level Estimated
Sun 08:00:00 PM 22.8854 -99.0751 187° South  Level Estimated
Sun 08:01:00 PM 22.7680 -99.0917 187° South  Level Estimated
Sun 08:02:00 PM 22.6507 -99.1083 187° South  Level Estimated
Sun 08:03:00 PM 22.5333 -99.1249 187° South  Level Estimated
Sun 08:04:00 PM 22.4158 -99.1415 187° South  Level Estimated
Sun 08:05:00 PM 22.2985 -99.1580 187° South  Level Estimated
Sun 08:06:00 PM 22.1810 -99.1745 187° South  Level Estimated
Sun 08:07:00 PM 22.0637 -99.1909 187° South  Level Estimated
Sun 08:08:00 PM 21.9463 -99.2074 187° South  Level Estimated
Sun 08:09:00 PM 21.8288 -99.2238 187° South  Level Estimated
Sun 08:10:00 PM 21.7114 -99.2402 187° South  Level Estimated
Sun 08:11:00 PM 21.5940 -99.2565 187° South  Level Estimated
Sun 08:12:00 PM 21.4766 -99.2729 187° South  Level Estimated
Sun 08:13:00 PM 21.3592 -99.2892 187° South  Level Estimated
Sun 08:14:00 PM 21.2418 -99.3054 187° South  Level Estimated
Sun 08:14:52 PM 20.8580 -100.0990 187° South 441 507 27,600  Level FlightAware ADS-B
Sun 08:15:32 PM 20.7770 -100.1300 200° South 436 502 26,100 -2,259 Descending FlightAware ADS-B
Sun 08:16:17 PM 20.6940 -100.1630 200° South 429 494 24,400 -2,250 Descending FlightAware ADS-B
Sun 08:16:52 PM 20.6230 -100.1780 191° South 433 498 23,100 -1,553 Descending FlightAware ADS-B
Sun 08:17:42 PM 20.5290 -100.1540 167° South 437 503 22,200 -1,129 Descending FlightAware ADS-B
Sun 08:18:17 PM 20.4620 -100.1240 157° South 434 499 21,500 -525 Descending FlightAware ADS-B
Sun 08:19:02 PM 20.3890 -100.0930 158° South 434 499 21,500  Level FlightAware ADS-B
Sun 08:19:42 PM 20.3250 -100.0660 158° South 434 499 21,500  Level FlightAware ADS-B
Sun 08:20:22 PM 20.2620 -100.0380 157° South 434 499 21,500  Level FlightAware ADS-B
Sun 08:21:12 PM 20.1830 -100.0040 158° South 434 499 21,500  Level FlightAware ADS-B
Sun 08:21:52 PM 20.1200 -99.9770 158° South 434 499 21,500 -2,850 Level FlightAware ADS-B
Sun 08:22:32 PM 20.0490 -99.9550 164° South 319 367 17,700 -3,040 Descending FlightAware ADS-B
Sun 08:23:07 PM 20.0070 -99.9380 159° South 319 367 17,700 -776 Level FlightAware ADS-B
Sun 08:23:57 PM 19.9320 -99.9090 160° South 311 358 16,600 -1,011 Descending FlightAware ADS-B
Sun 08:24:42 PM 19.8690 -99.8850 160° South 316 364 16,100 -706 Descending FlightAware ADS-B
Sun 08:25:22 PM 19.8140 -99.8630 159° South 316 364 15,600 -750 Descending FlightAware ADS-B
Sun 08:26:02 PM 19.7600 -99.8420 160° South 324 373 15,100 -847 Descending FlightAware ADS-B
Sun 08:26:47 PM 19.6930 -99.8160 160° South 323 372 14,400 -525 Descending FlightAware ADS-B
Sun 08:27:22 PM 19.6500 -99.7990 160° South 323 372 14,400  Level FlightAware ADS-B
Sun 08:28:02 PM 19.6020 -99.7810 161° South 323 372 14,400  Level FlightAware ADS-B
Sun 08:28:42 PM 19.5540 -99.7620 160° South 323 372 14,400  Level FlightAware ADS-B
Sun 08:31:00 PM 19.3467 -99.5747 140° Southeast  Level Estimated
Sun 08:32:00 PM 19.3371 -99.5660 140° Southeast  Level Estimated
Sun 08:33:00 PM 19.3371 -99.5660 43° Northeast  Level Estimated
Sun 08:34:00 PM 19.3371 -99.5660 43° Northeast  Level Estimated
Sun 08:35:00 PM 19.3371 -99.5660 43° Northeast  Level Estimated
Sun 08:36:00 PM 19.3371 -99.5660 43° Northeast  Level Estimated
Sun 08:37:00 PM 19.3371 -99.5660 43° Northeast  Level Estimated
Sun 08:38:00 PM 19.3371 -99.5660 43° Northeast  Level Estimated
Sun 08:39:00 PM 19.3371 -99.5660 43° Northeast  Level Estimated
Sun 08:40:00 PM 19.3371 -99.5660 43° Northeast  Level Estimated
Sun 08:41:00 PM 19.3371 -99.5660 43° Northeast  Level Estimated
Sun 08:42:00 PM 19.3371 -99.5660 43° Northeast  Level Estimated
Sun 08:43:00 PM 19.3371 -99.5660 43° Northeast  Level Estimated
Sun 08:44:00 PM 19.3371 -99.5660 43° Northeast  Level Estimated
Sun 08:45:00 PM 19.3371 -99.5660 43° Northeast  Level Estimated
Sun 08:46:00 PM 19.3371 -99.5660 43° Northeast  Level Estimated
Sun 08:47:00 PM 19.3371 -99.5660 43° Northeast  Level Estimated
Sun 08:48:00 PM 19.3371 -99.5660 43° Northeast  Level Estimated

Login

Don't have an account? Register now (free) for customized features, flight alerts, and more!